createdAt,value
2022-12-15T00:00:51.865Z,25.83
2022-12-15T00:03:40.063Z,25.42
2022-12-15T00:06:25.786Z,27.05
2022-12-15T00:09:14.196Z,24.85
2022-12-15T00:12:02.689Z,26.17
2022-12-15T00:14:50.448Z,28.60
2022-12-15T00:17:36.020Z,26.23
2022-12-15T00:20:21.997Z,22.92
2022-12-15T00:23:10.769Z,24.20
2022-12-15T00:28:44.091Z,20.95
2022-12-15T00:31:29.530Z,22.83
2022-12-15T00:34:15.378Z,25.10
2022-12-15T00:37:00.651Z,22.80
2022-12-15T00:39:27.542Z,23.35
2022-12-15T00:41:56.591Z,24.30
2022-12-15T00:44:24.168Z,25.27
2022-12-15T00:46:59.010Z,23.15
2022-12-15T00:49:50.465Z,25.77
2022-12-15T00:52:37.309Z,24.77
2022-12-15T00:55:26.446Z,25.23
2022-12-15T00:58:12.810Z,24.30
2022-12-15T01:00:58.082Z,25.98
2022-12-15T01:03:46.411Z,24.77
2022-12-15T01:06:36.342Z,25.20
2022-12-15T01:09:24.295Z,25.88
2022-12-15T01:12:09.492Z,26.40
2022-12-15T01:14:55.891Z,25.58
2022-12-15T01:17:43.236Z,22.58
2022-12-15T01:20:24.050Z,24.10
2022-12-15T01:22:56.429Z,25.52
2022-12-15T01:25:26.189Z,27.23
2022-12-15T01:27:56.059Z,23.05
2022-12-15T01:30:29.035Z,24.60
2022-12-15T01:33:04.341Z,26.77
2022-12-15T01:35:32.305Z,27.25
2022-12-15T01:38:02.722Z,26.48
2022-12-15T01:40:50.549Z,26.20
2022-12-15T01:43:21.803Z,25.88
2022-12-15T01:46:09.933Z,25.73
2022-12-15T01:48:58.176Z,28.65
2022-12-15T01:51:34.571Z,27.08
2022-12-15T01:54:18.313Z,26.13
2022-12-15T01:56:59.066Z,26.05
2022-12-15T01:59:36.031Z,25.27
2022-12-15T02:02:06.124Z,27.75
2022-12-15T02:04:40.095Z,26.50
2022-12-15T02:07:07.400Z,26.02
2022-12-15T02:09:37.989Z,25.88
2022-12-15T02:12:28.301Z,25.88
2022-12-15T02:15:01.265Z,29.30
2022-12-15T02:17:35.921Z,27.50
2022-12-15T02:20:27.931Z,28.02
2022-12-15T02:23:25.822Z,26.17
2022-12-15T02:26:23.465Z,25.95
2022-12-15T02:29:29.625Z,25.25
2022-12-15T02:32:07.981Z,25.70
2022-12-15T02:34:46.716Z,26.27
2022-12-15T02:37:26.677Z,26.10
2022-12-15T02:39:53.910Z,26.27
2022-12-15T02:42:24.617Z,27.38
2022-12-15T02:44:57.743Z,27.85
2022-12-15T02:47:48.158Z,27.88
2022-12-15T02:50:52.244Z,27.73
2022-12-15T02:53:49.257Z,26.95
2022-12-15T02:56:43.674Z,26.40
2022-12-15T02:59:33.274Z,26.52
2022-12-15T03:02:07.660Z,25.67
2022-12-15T03:04:34.936Z,27.08
2022-12-15T03:07:05.584Z,26.40
2022-12-15T03:09:37.736Z,26.42
2022-12-15T03:12:04.940Z,26.60
2022-12-15T03:14:31.941Z,26.30
2022-12-15T03:16:58.941Z,28.40
2022-12-15T03:19:26.427Z,28.15
2022-12-15T03:21:53.524Z,26.58
2022-12-15T03:24:20.725Z,27.77
2022-12-15T03:26:50.269Z,28.88
2022-12-15T03:29:17.910Z,25.65
2022-12-15T03:31:46.344Z,28.95
2022-12-15T03:34:18.879Z,30.27
2022-12-15T03:36:46.104Z,28.40
2022-12-15T03:39:13.143Z,27.02
2022-12-15T03:41:41.765Z,27.67
2022-12-15T03:44:11.836Z,28.05
2022-12-15T03:46:38.809Z,29.02
2022-12-15T03:49:08.456Z,27.00
2022-12-15T03:51:35.190Z,28.27
2022-12-15T03:54:04.211Z,25.75
2022-12-15T03:56:31.109Z,27.98
2022-12-15T03:59:00.667Z,28.90
2022-12-15T04:01:30.973Z,30.00
2022-12-15T04:04:06.836Z,27.48
2022-12-15T04:06:33.868Z,28.08
2022-12-15T04:09:00.954Z,26.17
2022-12-15T04:11:27.957Z,29.27
2022-12-15T04:13:57.053Z,27.48
2022-12-15T04:16:24.112Z,29.30
2022-12-15T04:19:14.441Z,26.15
2022-12-15T04:21:41.327Z,28.47
2022-12-15T04:24:26.579Z,27.90
2022-12-15T04:27:11.758Z,25.73
2022-12-15T04:29:57.048Z,28.85
2022-12-15T04:32:44.794Z,27.65
2022-12-15T04:35:35.280Z,26.27
2022-12-15T04:38:21.065Z,26.25
2022-12-15T04:41:06.493Z,24.45
2022-12-15T04:43:51.729Z,26.65
2022-12-15T04:46:37.086Z,28.05
2022-12-15T04:49:22.418Z,25.45
2022-12-15T04:52:07.660Z,27.17
2022-12-15T04:54:52.785Z,26.15
2022-12-15T04:57:40.336Z,24.85
2022-12-15T05:00:26.113Z,26.15
2022-12-15T05:03:17.979Z,28.10
2022-12-15T05:06:03.804Z,25.70
2022-12-15T05:08:51.836Z,26.30
2022-12-15T05:11:37.538Z,25.13
2022-12-15T05:14:26.539Z,26.70
2022-12-15T05:17:11.985Z,26.73
2022-12-15T05:19:57.392Z,26.83
2022-12-15T05:22:42.934Z,26.65
2022-12-15T05:25:28.369Z,27.00
2022-12-15T05:28:13.725Z,30.05
2022-12-15T05:30:59.184Z,28.70
2022-12-15T05:33:29.269Z,28.75
2022-12-15T05:36:00.531Z,26.90
2022-12-15T05:40:57.772Z,25.08
2022-12-15T05:43:26.505Z,26.25
2022-12-15T05:45:53.927Z,27.58
2022-12-15T05:48:23.900Z,27.35
2022-12-15T05:50:51.043Z,28.27
2022-12-15T05:53:18.097Z,27.48
2022-12-15T05:55:45.016Z,29.30
2022-12-15T05:58:11.969Z,26.45
2022-12-15T06:00:42.772Z,27.02
2022-12-15T06:05:39.848Z,25.02
2022-12-15T06:08:09.204Z,27.73
2022-12-15T06:10:36.062Z,28.10
2022-12-15T06:13:03.027Z,30.25
2022-12-15T06:15:45.916Z,29.00
2022-12-15T06:18:12.929Z,29.52
2022-12-15T06:20:41.209Z,28.17
2022-12-15T06:23:08.146Z,27.13
2022-12-15T06:25:35.217Z,27.77
2022-12-15T06:28:02.224Z,26.27
2022-12-15T06:30:30.479Z,27.25
2022-12-15T06:33:00.602Z,27.73
2022-12-15T06:35:32.704Z,26.43
2022-12-15T06:38:08.718Z,26.85
2022-12-15T06:40:40.950Z,27.88
2022-12-15T06:43:17.667Z,26.33
2022-12-15T06:45:49.727Z,29.92
2022-12-15T06:48:20.069Z,25.65
2022-12-15T06:50:47.876Z,28.17
2022-12-15T06:53:21.135Z,26.67
2022-12-15T06:55:56.373Z,26.77
2022-12-15T06:58:32.219Z,28.98
2022-12-15T07:01:06.248Z,27.88
2022-12-15T07:03:39.510Z,27.20
2022-12-15T07:06:09.948Z,26.52
2022-12-15T07:08:51.930Z,29.08
2022-12-15T07:11:25.663Z,28.80
2022-12-15T07:13:59.266Z,27.83
2022-12-15T07:16:28.235Z,28.38
2022-12-15T07:18:56.582Z,26.98
2022-12-15T07:21:24.058Z,26.15
2022-12-15T07:23:56.628Z,27.83
2022-12-15T07:26:25.247Z,27.13
2022-12-15T07:28:54.102Z,27.15
2022-12-15T07:31:22.557Z,27.45
2022-12-15T07:33:54.722Z,29.13
2022-12-15T07:36:23.264Z,26.35
2022-12-15T07:38:52.547Z,27.75
2022-12-15T07:41:20.262Z,28.33
2022-12-15T07:43:47.788Z,29.45
2022-12-15T07:46:15.589Z,29.63
2022-12-15T07:48:42.656Z,28.75
2022-12-15T07:51:17.372Z,28.33
2022-12-15T07:53:51.284Z,27.02
2022-12-15T07:56:19.817Z,26.80
2022-12-15T07:58:46.795Z,27.77
2022-12-15T08:01:14.884Z,26.80
2022-12-15T08:03:42.029Z,26.23
2022-12-15T08:06:11.825Z,29.00
2022-12-15T08:08:41.207Z,27.02
2022-12-15T08:11:43.469Z,28.75
2022-12-15T08:14:17.034Z,28.33
2022-12-15T08:16:45.762Z,27.13
2022-12-15T08:19:15.916Z,26.30
2022-12-15T08:21:45.497Z,27.17
2022-12-15T08:24:14.259Z,26.80
2022-12-15T08:26:42.958Z,27.63
2022-12-15T08:32:01.513Z,26.55
2022-12-15T08:34:34.127Z,33.35
2022-12-15T08:37:01.541Z,31.60
2022-12-15T08:39:29.189Z,33.05
2022-12-15T08:41:56.141Z,28.80
2022-12-15T08:44:22.947Z,28.85
2022-12-15T08:47:00.199Z,28.38
2022-12-15T08:49:30.143Z,27.35
2022-12-15T08:51:57.090Z,27.17
2022-12-15T08:54:26.661Z,28.20
2022-12-15T08:56:53.730Z,29.77
2022-12-15T08:59:20.861Z,33.40
2022-12-15T09:01:48.562Z,34.22
2022-12-15T09:04:21.372Z,31.95
2022-12-15T09:06:51.640Z,33.03
2022-12-15T09:09:19.339Z,31.65
2022-12-15T09:11:47.632Z,31.38
2022-12-15T09:14:25.553Z,33.15
2022-12-15T09:16:55.629Z,34.97
2022-12-15T09:19:23.180Z,33.92
2022-12-15T09:21:57.690Z,36.50
2022-12-15T09:24:35.028Z,34.47
2022-12-15T09:27:13.894Z,32.20
2022-12-15T09:29:41.059Z,33.17
2022-12-15T09:32:13.912Z,32.25
2022-12-15T09:34:44.765Z,32.88
2022-12-15T09:37:14.177Z,33.38
2022-12-15T09:39:44.666Z,34.03
2022-12-15T09:42:34.066Z,33.90
2022-12-15T09:45:13.991Z,34.13
2022-12-15T09:47:53.694Z,35.78
2022-12-15T09:50:29.900Z,33.88
2022-12-15T09:53:01.172Z,35.45
2022-12-15T09:55:30.410Z,37.67
2022-12-15T09:58:11.148Z,37.60
2022-12-15T10:00:44.749Z,37.30
2022-12-15T10:03:36.510Z,35.53
2022-12-15T10:06:21.420Z,35.00
2022-12-15T10:08:57.906Z,30.00
2022-12-15T10:11:44.857Z,31.15
2022-12-15T10:14:39.726Z,29.75
2022-12-15T10:17:23.047Z,28.67
2022-12-15T10:20:00.472Z,31.15
2022-12-15T10:22:32.294Z,36.40
2022-12-15T10:25:10.431Z,29.45
2022-12-15T10:28:16.540Z,30.13
2022-12-15T10:30:49.463Z,28.75
2022-12-15T10:33:22.408Z,28.75
2022-12-15T10:35:50.326Z,25.17
2022-12-15T10:38:30.209Z,26.98
2022-12-15T10:41:01.301Z,27.30
2022-12-15T10:43:35.839Z,31.13
2022-12-15T10:46:09.067Z,36.97
2022-12-15T10:48:36.678Z,35.63
2022-12-15T10:51:23.028Z,36.20
2022-12-15T10:53:53.658Z,35.17
2022-12-15T10:56:32.481Z,34.78
2022-12-15T10:59:06.920Z,32.63
2022-12-15T11:01:35.785Z,34.20
2022-12-15T11:04:02.928Z,36.38
2022-12-15T11:06:32.911Z,33.28
2022-12-15T11:09:27.266Z,35.15
2022-12-15T11:12:12.980Z,34.22
2022-12-15T11:14:44.905Z,33.47
2022-12-15T11:17:23.108Z,35.10
2022-12-15T11:20:02.937Z,34.03
2022-12-15T11:22:53.455Z,34.10
2022-12-15T11:25:23.201Z,35.58
2022-12-15T11:27:52.401Z,35.03
2022-12-15T11:30:22.308Z,34.35
2022-12-15T11:32:53.597Z,36.47
2022-12-15T11:35:33.138Z,35.90
2022-12-15T11:38:12.884Z,36.50
2022-12-15T11:40:41.697Z,36.90
2022-12-15T11:43:36.406Z,35.25
2022-12-15T11:46:14.973Z,36.35
2022-12-15T11:48:50.622Z,36.38
2022-12-15T11:51:26.964Z,37.35
2022-12-15T11:54:18.370Z,38.33
2022-12-15T11:57:20.778Z,34.35
2022-12-15T12:00:11.824Z,35.42
2022-12-15T12:05:41.755Z,30.00
2022-12-15T12:08:20.476Z,33.10
2022-12-15T12:11:15.069Z,31.83
2022-12-15T12:14:11.669Z,31.10
2022-12-15T12:16:57.529Z,30.17
2022-12-15T12:19:41.186Z,26.33
2022-12-15T12:22:21.876Z,28.50
2022-12-15T12:25:12.217Z,29.13
2022-12-15T12:30:45.060Z,27.02
2022-12-15T12:33:34.382Z,27.50
2022-12-15T12:36:09.445Z,27.95
2022-12-15T12:38:41.296Z,27.55
2022-12-15T12:41:27.286Z,30.48
2022-12-15T12:44:06.055Z,27.13
2022-12-15T12:46:50.528Z,30.80
2022-12-15T12:49:40.663Z,30.55
2022-12-15T12:52:25.593Z,28.95
2022-12-15T12:55:14.855Z,30.05
2022-12-15T12:57:45.803Z,31.15
2022-12-15T13:00:32.286Z,31.25
2022-12-15T13:03:20.881Z,30.83
2022-12-15T13:05:50.620Z,28.13
2022-12-15T13:08:28.777Z,30.58
2022-12-15T13:10:56.463Z,33.53
2022-12-15T13:13:31.296Z,31.10
2022-12-15T13:16:27.106Z,30.40
2022-12-15T13:19:04.529Z,31.30
2022-12-15T13:21:43.631Z,31.08
2022-12-15T13:24:25.915Z,32.15
2022-12-15T13:26:52.881Z,31.75
2022-12-15T13:29:23.486Z,33.97
2022-12-15T13:31:51.140Z,32.85
2022-12-15T13:34:26.205Z,31.98
2022-12-15T13:36:55.873Z,31.60
2022-12-15T13:39:22.527Z,30.77
2022-12-15T13:42:31.737Z,32.22
2022-12-15T13:44:44.267Z,32.88
2022-12-15T13:47:32.001Z,32.08
2022-12-15T13:50:21.247Z,33.92
2022-12-15T13:53:18.410Z,34.17
2022-12-15T13:56:13.502Z,33.92
2022-12-15T13:58:45.668Z,33.78
2022-12-15T14:04:19.705Z,35.35
2022-12-15T14:06:56.004Z,34.05
2022-12-15T14:09:29.560Z,34.10
2022-12-15T14:11:57.943Z,31.63
2022-12-15T14:14:28.354Z,34.45
2022-12-15T14:17:00.985Z,35.15
2022-12-15T14:25:25.556Z,34.88
2022-12-15T14:27:52.362Z,33.25
2022-12-15T14:30:22.165Z,37.22
2022-12-15T14:33:00.839Z,33.28
2022-12-15T14:35:54.025Z,33.92
2022-12-15T14:38:32.669Z,34.63
2022-12-15T14:41:04.637Z,35.97
2022-12-15T14:43:38.009Z,35.08
2022-12-15T14:46:27.118Z,35.45
2022-12-15T14:49:08.266Z,34.40
2022-12-15T14:54:53.569Z,32.70
2022-12-15T14:57:48.250Z,33.63
2022-12-15T15:00:31.680Z,34.08
2022-12-15T15:03:12.380Z,30.02
2022-12-15T15:03:14.223Z,35.47
2022-12-15T15:03:16.062Z,33.97
2022-12-15T15:05:51.036Z,32.40
2022-12-15T15:08:31.930Z,34.13
2022-12-15T15:11:01.860Z,35.15
2022-12-15T15:13:40.147Z,35.72
2022-12-15T15:16:15.074Z,34.58
2022-12-15T15:18:43.242Z,33.72
2022-12-15T15:21:19.288Z,34.60
2022-12-15T15:24:10.717Z,38.65
2022-12-15T15:26:38.536Z,34.05
2022-12-15T15:29:34.364Z,35.63
2022-12-15T15:32:16.783Z,37.13
2022-12-15T15:34:47.791Z,39.42
2022-12-15T15:37:19.090Z,39.05
2022-12-15T15:39:49.060Z,37.58
2022-12-15T15:42:16.290Z,38.72
2022-12-15T15:44:42.951Z,37.72
2022-12-15T15:47:20.379Z,37.70
2022-12-15T15:49:58.701Z,36.25
2022-12-15T15:52:29.909Z,40.10
2022-12-15T15:54:56.795Z,39.08
2022-12-15T15:57:51.756Z,40.22
2022-12-15T16:00:27.913Z,40.03
2022-12-15T16:02:56.822Z,38.88
2022-12-15T16:05:23.951Z,38.95
2022-12-15T16:07:50.868Z,38.88
2022-12-15T16:10:22.016Z,36.40
2022-12-15T16:12:52.722Z,37.15
2022-12-15T16:15:26.167Z,37.15
2022-12-15T16:17:54.043Z,40.75
2022-12-15T16:20:23.552Z,42.28
2022-12-15T16:22:55.906Z,41.47
2022-12-15T16:25:48.556Z,43.60
2022-12-15T16:28:26.859Z,41.45
2022-12-15T16:30:58.547Z,40.60
2022-12-15T16:33:25.662Z,40.40
2022-12-15T16:35:57.414Z,41.30
2022-12-15T16:38:31.089Z,39.30
2022-12-15T16:41:12.027Z,38.88
2022-12-15T16:43:42.946Z,39.65
2022-12-15T16:46:15.486Z,39.63
2022-12-15T16:48:48.479Z,40.60
2022-12-15T16:51:31.511Z,40.30
2022-12-15T16:53:58.355Z,41.13
2022-12-15T16:56:25.538Z,38.80
2022-12-15T16:58:57.565Z,41.85
2022-12-15T17:01:31.263Z,40.40
2022-12-15T17:04:00.068Z,43.33
2022-12-15T17:06:27.740Z,38.22
2022-12-15T17:08:56.638Z,38.85
2022-12-15T17:11:25.185Z,36.72
2022-12-15T17:13:56.879Z,34.75
2022-12-15T17:16:25.990Z,36.72
2022-12-15T17:18:52.963Z,37.13
2022-12-15T17:21:27.253Z,37.15
2022-12-15T17:23:57.739Z,36.22
2022-12-15T17:29:22.386Z,38.35
2022-12-15T17:31:56.015Z,33.88
2022-12-15T17:34:33.606Z,38.00
2022-12-15T17:37:13.190Z,38.38
2022-12-15T17:39:55.506Z,36.05
2022-12-15T17:42:22.673Z,39.03
2022-12-15T17:45:00.014Z,38.58
2022-12-15T17:47:30.714Z,40.40
2022-12-15T17:49:59.673Z,39.05
2022-12-15T17:52:34.827Z,39.55
2022-12-15T17:55:17.937Z,36.58
2022-12-15T17:57:50.956Z,35.40
2022-12-15T18:03:12.357Z,32.60
2022-12-15T18:06:03.484Z,29.98
2022-12-15T18:08:55.690Z,34.17
2022-12-15T18:11:52.589Z,29.08
2022-12-15T18:15:06.469Z,27.95
2022-12-15T18:17:41.148Z,26.02
2022-12-15T18:20:12.681Z,29.38
2022-12-15T18:22:56.719Z,27.48
2022-12-15T18:25:37.876Z,32.42
2022-12-15T18:28:37.344Z,30.67
2022-12-15T18:31:26.807Z,34.70
2022-12-15T18:34:12.654Z,29.42
2022-12-15T18:36:59.939Z,29.55
2022-12-15T18:42:39.951Z,29.92
2022-12-15T18:45:36.982Z,32.60
2022-12-15T18:48:32.687Z,51.28
2022-12-15T18:51:02.511Z,38.88
2022-12-15T18:53:41.154Z,36.03
2022-12-15T18:56:14.962Z,30.90
2022-12-15T18:58:50.298Z,29.80
2022-12-15T19:01:20.718Z,32.67
2022-12-15T19:03:54.940Z,34.08
2022-12-15T19:06:47.306Z,30.70
2022-12-15T19:09:23.321Z,29.67
2022-12-15T19:12:19.014Z,30.27
2022-12-15T19:14:47.812Z,29.20
2022-12-15T19:17:44.528Z,31.23
2022-12-15T19:20:38.639Z,26.33
2022-12-15T19:23:11.212Z,27.65
2022-12-15T19:25:46.807Z,28.33
2022-12-15T19:28:24.385Z,29.80
2022-12-15T19:30:54.555Z,27.55
2022-12-15T19:33:24.918Z,29.52
2022-12-15T19:35:57.514Z,28.60
2022-12-15T19:38:36.060Z,27.05
2022-12-15T19:41:03.486Z,28.38
2022-12-15T19:43:33.159Z,27.92
2022-12-15T19:46:00.212Z,26.98
2022-12-15T19:49:01.077Z,26.30
2022-12-15T19:51:31.577Z,26.92
2022-12-15T19:54:16.126Z,28.52
2022-12-15T19:56:44.024Z,26.45
2022-12-15T19:59:34.237Z,24.90
2022-12-15T20:02:01.452Z,27.00
2022-12-15T20:04:35.502Z,25.70
2022-12-15T20:07:05.606Z,25.15
2022-12-15T20:09:38.761Z,24.25
2022-12-15T20:12:11.705Z,24.05
2022-12-15T20:14:39.046Z,23.80
2022-12-15T20:17:08.347Z,24.65
2022-12-15T20:19:35.586Z,25.50
2022-12-15T20:22:09.126Z,27.92
2022-12-15T20:24:40.780Z,26.77
2022-12-15T20:27:22.841Z,28.25
2022-12-15T20:29:51.932Z,29.85
2022-12-15T20:32:25.732Z,30.25
2022-12-15T20:34:57.900Z,27.42
2022-12-15T20:37:33.266Z,30.43
2022-12-15T20:40:00.254Z,30.67
2022-12-15T20:42:29.508Z,32.17
2022-12-15T20:44:56.468Z,31.55
2022-12-15T20:47:27.246Z,31.50
2022-12-15T20:49:55.646Z,31.58
2022-12-15T20:52:25.155Z,32.13
2022-12-15T20:54:54.548Z,34.65
2022-12-15T20:57:22.784Z,32.65
2022-12-15T20:59:49.605Z,32.15
2022-12-15T21:02:22.321Z,30.20
2022-12-15T21:04:50.696Z,33.33
2022-12-15T21:07:17.440Z,32.13
2022-12-15T21:09:44.530Z,29.73
2022-12-15T21:12:25.260Z,33.13
2022-12-15T21:14:55.379Z,31.23
2022-12-15T21:17:33.623Z,28.55
2022-12-15T21:20:03.965Z,26.70
2022-12-15T21:22:36.957Z,26.02
2022-12-15T21:25:44.031Z,28.90
2022-12-15T21:28:25.400Z,25.35
2022-12-15T21:30:55.584Z,25.77
2022-12-15T21:33:24.808Z,29.23
2022-12-15T21:35:51.871Z,27.65
2022-12-15T21:38:40.832Z,26.23
2022-12-15T21:41:16.269Z,25.52
2022-12-15T21:43:44.058Z,24.92
2022-12-15T21:46:24.562Z,24.40
2022-12-15T21:49:14.449Z,23.65
2022-12-15T21:51:47.821Z,22.85
2022-12-15T21:54:45.978Z,22.80
2022-12-15T21:57:13.034Z,24.95
2022-12-15T21:59:40.093Z,22.38
2022-12-15T22:02:25.245Z,22.80
2022-12-15T22:04:55.284Z,20.48
2022-12-15T22:07:22.023Z,21.92
2022-12-15T22:09:48.941Z,19.50
2022-12-15T22:12:21.331Z,20.55
2022-12-15T22:14:48.444Z,19.35
2022-12-15T22:17:22.360Z,21.08
2022-12-15T22:19:49.557Z,19.80
2022-12-15T22:22:18.724Z,19.67
2022-12-15T22:24:45.463Z,21.75
2022-12-15T22:27:19.984Z,19.48
2022-12-15T22:29:48.540Z,19.40
2022-12-15T22:32:18.195Z,18.10
2022-12-15T22:34:47.618Z,17.35
2022-12-15T22:37:21.977Z,19.63
2022-12-15T22:39:51.685Z,18.30
2022-12-15T22:42:18.464Z,17.02
2022-12-15T22:44:45.758Z,18.90
2022-12-15T22:47:12.279Z,19.17
2022-12-15T22:49:40.599Z,17.05
2022-12-15T22:52:18.849Z,16.85
2022-12-15T22:54:46.370Z,17.48
2022-12-15T22:57:22.005Z,17.85
2022-12-15T23:00:00.770Z,17.35
2022-12-15T23:02:31.117Z,17.95
2022-12-15T23:04:58.103Z,18.85
2022-12-15T23:07:25.410Z,16.05
2022-12-15T23:10:11.944Z,18.67
2022-12-15T23:12:38.638Z,17.55
2022-12-15T23:15:24.326Z,17.63
2022-12-15T23:17:50.908Z,16.60
2022-12-15T23:20:18.796Z,17.05
2022-12-15T23:22:45.359Z,16.52
2022-12-15T23:25:12.015Z,16.38
2022-12-15T23:27:38.767Z,16.92
2022-12-15T23:30:05.894Z,15.55
2022-12-15T23:32:33.340Z,16.55
2022-12-15T23:35:00.743Z,17.83
2022-12-15T23:37:27.618Z,15.88
2022-12-15T23:39:54.319Z,16.60
2022-12-15T23:42:23.641Z,16.13
2022-12-15T23:44:50.456Z,15.60
2022-12-15T23:47:17.348Z,16.45
2022-12-15T23:49:43.963Z,16.92
2022-12-15T23:52:10.705Z,15.63
2022-12-15T23:54:37.534Z,15.93
2022-12-15T23:57:04.731Z,14.63
2022-12-15T23:59:31.361Z,15.30
